sensor_id;sensor_type;location;lat;lon;timestamp;temperature;humidity
19813;DHT22;10066;48.108;11.448;2022-12-18T00:02:19;-3.70;99.90
19813;DHT22;10066;48.108;11.448;2022-12-18T00:04:47;-3.80;99.90
19813;DHT22;10066;48.108;11.448;2022-12-18T00:07:14;-3.80;99.90
19813;DHT22;10066;48.108;11.448;2022-12-18T00:09:41;-3.80;99.90
19813;DHT22;10066;48.108;11.448;2022-12-18T00:12:08;-3.90;99.90
19813;DHT22;10066;48.108;11.448;2022-12-18T00:14:36;-3.90;99.90
19813;DHT22;10066;48.108;11.448;2022-12-18T00:17:03;-3.80;99.90
19813;DHT22;10066;48.108;11.448;2022-12-18T00:19:30;-3.90;99.90
19813;DHT22;10066;48.108;11.448;2022-12-18T00:21:57;-3.90;99.90
19813;DHT22;10066;48.108;11.448;2022-12-18T00:24:24;-3.90;99.90
19813;DHT22;10066;48.108;11.448;2022-12-18T00:26:51;-3.90;99.90
19813;DHT22;10066;48.108;11.448;2022-12-18T00:29:18;-3.90;99.90
19813;DHT22;10066;48.108;11.448;2022-12-18T00:31:46;-3.90;99.90
19813;DHT22;10066;48.108;11.448;2022-12-18T00:34:13;-3.90;99.90
19813;DHT22;10066;48.108;11.448;2022-12-18T00:36:41;-4.00;99.90
19813;DHT22;10066;48.108;11.448;2022-12-18T00:39:09;-4.00;99.90
19813;DHT22;10066;48.108;11.448;2022-12-18T00:41:36;-4.00;99.90
19813;DHT22;10066;48.108;11.448;2022-12-18T00:44:21;-4.00;99.90
19813;DHT22;10066;48.108;11.448;2022-12-18T00:46:49;-4.00;99.90
19813;DHT22;10066;48.108;11.448;2022-12-18T00:49:17;-4.00;99.90
19813;DHT22;10066;48.108;11.448;2022-12-18T00:51:44;-4.10;99.90
19813;DHT22;10066;48.108;11.448;2022-12-18T00:54:11;-4.10;99.90
19813;DHT22;10066;48.108;11.448;2022-12-18T00:56:39;-4.00;99.90
19813;DHT22;10066;48.108;11.448;2022-12-18T00:59:06;-4.10;99.90
19813;DHT22;10066;48.108;11.448;2022-12-18T01:01:33;-4.10;99.90
19813;DHT22;10066;48.108;11.448;2022-12-18T01:04:02;-4.10;99.90
19813;DHT22;10066;48.108;11.448;2022-12-18T01:06:30;-4.10;99.90
19813;DHT22;10066;48.108;11.448;2022-12-18T01:08:57;-4.10;99.90
19813;DHT22;10066;48.108;11.448;2022-12-18T01:11:24;-4.10;99.90
19813;DHT22;10066;48.108;11.448;2022-12-18T01:13:53;-4.10;99.90
19813;DHT22;10066;48.108;11.448;2022-12-18T01:16:20;-4.10;99.90
19813;DHT22;10066;48.108;11.448;2022-12-18T01:18:47;-4.10;99.90
19813;DHT22;10066;48.108;11.448;2022-12-18T01:21:18;-4.10;99.90
19813;DHT22;10066;48.108;11.448;2022-12-18T01:23:45;-4.10;99.90
19813;DHT22;10066;48.108;11.448;2022-12-18T01:26:14;-4.10;99.90
19813;DHT22;10066;48.108;11.448;2022-12-18T01:28:41;-4.00;99.90
19813;DHT22;10066;48.108;11.448;2022-12-18T01:31:14;-4.00;99.90
19813;DHT22;10066;48.108;11.448;2022-12-18T01:33:41;-3.90;99.90
19813;DHT22;10066;48.108;11.448;2022-12-18T01:36:14;-3.90;99.90
19813;DHT22;10066;48.108;11.448;2022-12-18T01:38:42;-3.80;99.90
19813;DHT22;10066;48.108;11.448;2022-12-18T01:41:11;-3.80;99.90
19813;DHT22;10066;48.108;11.448;2022-12-18T01:46:09;-3.90;99.90
19813;DHT22;10066;48.108;11.448;2022-12-18T01:48:36;-3.90;99.90
19813;DHT22;10066;48.108;11.448;2022-12-18T01:51:04;-3.90;99.90
19813;DHT22;10066;48.108;11.448;2022-12-18T01:53:32;-3.90;99.90
19813;DHT22;10066;48.108;11.448;2022-12-18T01:56:01;-4.00;99.90
19813;DHT22;10066;48.108;11.448;2022-12-18T01:58:30;-4.00;99.90
19813;DHT22;10066;48.108;11.448;2022-12-18T02:00:59;-3.90;99.90
19813;DHT22;10066;48.108;11.448;2022-12-18T02:03:26;-3.90;99.90
19813;DHT22;10066;48.108;11.448;2022-12-18T02:05:59;-3.90;99.90
19813;DHT22;10066;48.108;11.448;2022-12-18T02:08:33;-3.90;99.90
19813;DHT22;10066;48.108;11.448;2022-12-18T02:11:08;-4.00;99.90
19813;DHT22;10066;48.108;11.448;2022-12-18T02:13:41;-3.90;99.90
19813;DHT22;10066;48.108;11.448;2022-12-18T02:16:19;-4.00;99.90
19813;DHT22;10066;48.108;11.448;2022-12-18T02:18:50;-4.00;99.90
19813;DHT22;10066;48.108;11.448;2022-12-18T02:21:26;-4.00;99.90
19813;DHT22;10066;48.108;11.448;2022-12-18T02:24:00;-4.00;99.90
19813;DHT22;10066;48.108;11.448;2022-12-18T02:26:34;-4.00;99.90
19813;DHT22;10066;48.108;11.448;2022-12-18T02:29:07;-4.00;99.90
19813;DHT22;10066;48.108;11.448;2022-12-18T02:31:38;-4.00;99.90
19813;DHT22;10066;48.108;11.448;2022-12-18T02:34:08;-3.90;99.90
19813;DHT22;10066;48.108;11.448;2022-12-18T02:36:36;-3.90;99.90
19813;DHT22;10066;48.108;11.448;2022-12-18T02:39:06;-4.00;99.90
19813;DHT22;10066;48.108;11.448;2022-12-18T02:41:37;-3.90;99.90
19813;DHT22;10066;48.108;11.448;2022-12-18T02:44:08;-3.90;99.90
19813;DHT22;10066;48.108;11.448;2022-12-18T02:46:39;-3.90;99.90
19813;DHT22;10066;48.108;11.448;2022-12-18T02:49:12;-4.00;99.90
19813;DHT22;10066;48.108;11.448;2022-12-18T02:51:50;-3.90;99.90
19813;DHT22;10066;48.108;11.448;2022-12-18T02:54:27;-4.00;99.90
19813;DHT22;10066;48.108;11.448;2022-12-18T02:57:03;-3.90;99.90
19813;DHT22;10066;48.108;11.448;2022-12-18T02:59:39;-3.90;99.90
19813;DHT22;10066;48.108;11.448;2022-12-18T03:02:17;-3.90;99.90
19813;DHT22;10066;48.108;11.448;2022-12-18T03:04:49;-3.90;99.90
19813;DHT22;10066;48.108;11.448;2022-12-18T03:07:23;-3.90;99.90
19813;DHT22;10066;48.108;11.448;2022-12-18T03:09:53;-3.90;99.90
19813;DHT22;10066;48.108;11.448;2022-12-18T03:12:26;-3.90;99.90
19813;DHT22;10066;48.108;11.448;2022-12-18T03:14:57;-3.90;99.90
19813;DHT22;10066;48.108;11.448;2022-12-18T03:17:27;-3.90;99.90
19813;DHT22;10066;48.108;11.448;2022-12-18T03:19:58;-3.80;99.90
19813;DHT22;10066;48.108;11.448;2022-12-18T03:22:27;-3.90;99.90
19813;DHT22;10066;48.108;11.448;2022-12-18T03:24:56;-3.90;99.90
19813;DHT22;10066;48.108;11.448;2022-12-18T03:27:28;-3.80;99.90
19813;DHT22;10066;48.108;11.448;2022-12-18T03:30:01;-3.90;99.90
19813;DHT22;10066;48.108;11.448;2022-12-18T03:32:36;-3.80;99.90
19813;DHT22;10066;48.108;11.448;2022-12-18T03:35:05;-3.80;99.90
19813;DHT22;10066;48.108;11.448;2022-12-18T03:37:33;-3.80;99.90
19813;DHT22;10066;48.108;11.448;2022-12-18T03:40:01;-3.80;99.90
19813;DHT22;10066;48.108;11.448;2022-12-18T03:42:34;-3.80;99.90
19813;DHT22;10066;48.108;11.448;2022-12-18T03:45:07;-3.70;99.90
19813;DHT22;10066;48.108;11.448;2022-12-18T03:47:41;-3.70;99.90
19813;DHT22;10066;48.108;11.448;2022-12-18T03:50:13;-3.70;99.90
19813;DHT22;10066;48.108;11.448;2022-12-18T03:52:46;-3.80;99.90
19813;DHT22;10066;48.108;11.448;2022-12-18T03:55:15;-3.80;99.90
19813;DHT22;10066;48.108;11.448;2022-12-18T03:57:46;-3.80;99.90
19813;DHT22;10066;48.108;11.448;2022-12-18T04:00:16;-3.80;99.90
19813;DHT22;10066;48.108;11.448;2022-12-18T04:02:47;-3.80;99.90
19813;DHT22;10066;48.108;11.448;2022-12-18T04:05:15;-3.80;99.90
19813;DHT22;10066;48.108;11.448;2022-12-18T04:07:45;-3.90;99.90
19813;DHT22;10066;48.108;11.448;2022-12-18T04:10:14;-4.00;99.90
19813;DHT22;10066;48.108;11.448;2022-12-18T04:12:42;-3.90;99.90
19813;DHT22;10066;48.108;11.448;2022-12-18T04:15:11;-4.00;99.90
19813;DHT22;10066;48.108;11.448;2022-12-18T04:17:39;-3.90;99.90
19813;DHT22;10066;48.108;11.448;2022-12-18T04:20:10;-3.90;99.90
19813;DHT22;10066;48.108;11.448;2022-12-18T04:22:37;-3.90;99.90
19813;DHT22;10066;48.108;11.448;2022-12-18T04:25:04;-3.90;99.90
19813;DHT22;10066;48.108;11.448;2022-12-18T04:27:31;-3.90;99.90
19813;DHT22;10066;48.108;11.448;2022-12-18T04:29:58;-3.90;99.90
19813;DHT22;10066;48.108;11.448;2022-12-18T04:32:27;-3.90;99.90
19813;DHT22;10066;48.108;11.448;2022-12-18T04:34:54;-3.90;99.90
19813;DHT22;10066;48.108;11.448;2022-12-18T04:37:21;-3.90;99.90
19813;DHT22;10066;48.108;11.448;2022-12-18T04:39:48;-3.90;99.90
19813;DHT22;10066;48.108;11.448;2022-12-18T04:42:16;-3.90;99.90
19813;DHT22;10066;48.108;11.448;2022-12-18T04:44:43;-3.90;99.90
19813;DHT22;10066;48.108;11.448;2022-12-18T04:47:10;-3.90;99.90
19813;DHT22;10066;48.108;11.448;2022-12-18T04:49:38;-3.80;99.90
19813;DHT22;10066;48.108;11.448;2022-12-18T04:52:05;-3.80;99.90
19813;DHT22;10066;48.108;11.448;2022-12-18T04:54:35;-3.80;99.90
19813;DHT22;10066;48.108;11.448;2022-12-18T04:57:02;-3.80;99.90
19813;DHT22;10066;48.108;11.448;2022-12-18T04:59:29;-3.80;99.90
19813;DHT22;10066;48.108;11.448;2022-12-18T05:01:56;-3.80;99.90
19813;DHT22;10066;48.108;11.448;2022-12-18T05:04:22;-3.70;99.90
19813;DHT22;10066;48.108;11.448;2022-12-18T05:06:51;-3.70;99.90
19813;DHT22;10066;48.108;11.448;2022-12-18T05:09:18;-3.70;99.90
19813;DHT22;10066;48.108;11.448;2022-12-18T05:11:44;-3.70;99.90
19813;DHT22;10066;48.108;11.448;2022-12-18T05:14:12;-3.60;99.90
19813;DHT22;10066;48.108;11.448;2022-12-18T05:16:38;-3.70;99.90
19813;DHT22;10066;48.108;11.448;2022-12-18T05:19:05;-3.60;99.90
19813;DHT22;10066;48.108;11.448;2022-12-18T05:21:32;-3.60;99.90
19813;DHT22;10066;48.108;11.448;2022-12-18T05:24:01;-3.60;99.90
19813;DHT22;10066;48.108;11.448;2022-12-18T05:26:28;-3.60;99.90
19813;DHT22;10066;48.108;11.448;2022-12-18T05:28:56;-3.70;99.90
19813;DHT22;10066;48.108;11.448;2022-12-18T05:31:23;-3.60;99.90
19813;DHT22;10066;48.108;11.448;2022-12-18T05:33:50;-3.70;99.90
19813;DHT22;10066;48.108;11.448;2022-12-18T05:36:17;-3.70;99.90
19813;DHT22;10066;48.108;11.448;2022-12-18T05:38:44;-3.70;99.90
19813;DHT22;10066;48.108;11.448;2022-12-18T05:41:12;-3.70;99.90
19813;DHT22;10066;48.108;11.448;2022-12-18T05:43:39;-3.70;99.90
19813;DHT22;10066;48.108;11.448;2022-12-18T05:46:08;-3.80;99.90
19813;DHT22;10066;48.108;11.448;2022-12-18T05:48:35;-3.80;99.90
19813;DHT22;10066;48.108;11.448;2022-12-18T05:51:06;-3.80;99.90
19813;DHT22;10066;48.108;11.448;2022-12-18T05:53:35;-3.70;99.90
19813;DHT22;10066;48.108;11.448;2022-12-18T05:56:04;-3.80;99.90
19813;DHT22;10066;48.108;11.448;2022-12-18T05:58:34;-3.70;99.90
19813;DHT22;10066;48.108;11.448;2022-12-18T06:01:07;-3.70;99.90
19813;DHT22;10066;48.108;11.448;2022-12-18T06:03:35;-3.70;99.90
19813;DHT22;10066;48.108;11.448;2022-12-18T06:06:02;-3.70;99.90
19813;DHT22;10066;48.108;11.448;2022-12-18T06:08:29;-3.70;99.90
19813;DHT22;10066;48.108;11.448;2022-12-18T06:10:56;-3.70;99.90
19813;DHT22;10066;48.108;11.448;2022-12-18T06:13:23;-3.70;99.90
19813;DHT22;10066;48.108;11.448;2022-12-18T06:15:51;-3.70;99.90
19813;DHT22;10066;48.108;11.448;2022-12-18T06:18:19;-3.70;99.90
19813;DHT22;10066;48.108;11.448;2022-12-18T06:20:54;-3.70;99.90
19813;DHT22;10066;48.108;11.448;2022-12-18T06:23:21;-3.80;99.90
19813;DHT22;10066;48.108;11.448;2022-12-18T06:25:48;-3.80;99.90
19813;DHT22;10066;48.108;11.448;2022-12-18T06:28:15;-3.80;99.90
19813;DHT22;10066;48.108;11.448;2022-12-18T06:30:43;-3.90;99.90
19813;DHT22;10066;48.108;11.448;2022-12-18T06:33:11;-3.80;99.90
19813;DHT22;10066;48.108;11.448;2022-12-18T06:35:39;-3.80;99.90
19813;DHT22;10066;48.108;11.448;2022-12-18T06:38:06;-3.90;99.90
19813;DHT22;10066;48.108;11.448;2022-12-18T06:40:34;-3.90;99.90
19813;DHT22;10066;48.108;11.448;2022-12-18T06:43:03;-3.90;99.90
19813;DHT22;10066;48.108;11.448;2022-12-18T06:45:30;-3.80;99.90
19813;DHT22;10066;48.108;11.448;2022-12-18T06:47:57;-3.80;99.90
19813;DHT22;10066;48.108;11.448;2022-12-18T06:50:29;-3.70;99.90
19813;DHT22;10066;48.108;11.448;2022-12-18T06:52:56;-3.70;99.90
19813;DHT22;10066;48.108;11.448;2022-12-18T06:55:23;-3.70;99.90
19813;DHT22;10066;48.108;11.448;2022-12-18T06:57:50;-3.70;99.90
19813;DHT22;10066;48.108;11.448;2022-12-18T07:00:17;-3.70;99.90
19813;DHT22;10066;48.108;11.448;2022-12-18T07:02:44;-3.80;99.90
19813;DHT22;10066;48.108;11.448;2022-12-18T07:05:15;-3.80;99.90
19813;DHT22;10066;48.108;11.448;2022-12-18T07:07:43;-3.80;99.90
19813;DHT22;10066;48.108;11.448;2022-12-18T07:10:10;-3.80;99.90
19813;DHT22;10066;48.108;11.448;2022-12-18T07:12:36;-3.70;99.90
19813;DHT22;10066;48.108;11.448;2022-12-18T07:15:04;-3.70;99.90
19813;DHT22;10066;48.108;11.448;2022-12-18T07:17:31;-3.70;99.90
19813;DHT22;10066;48.108;11.448;2022-12-18T07:19:58;-3.70;99.90
19813;DHT22;10066;48.108;11.448;2022-12-18T07:22:25;-3.60;99.90
19813;DHT22;10066;48.108;11.448;2022-12-18T07:24:55;-3.60;99.90
19813;DHT22;10066;48.108;11.448;2022-12-18T07:27:22;-3.60;99.90
19813;DHT22;10066;48.108;11.448;2022-12-18T07:29:49;-3.60;99.90
19813;DHT22;10066;48.108;11.448;2022-12-18T07:32:16;-3.60;99.90
19813;DHT22;10066;48.108;11.448;2022-12-18T07:34:44;-3.70;99.90
19813;DHT22;10066;48.108;11.448;2022-12-18T07:37:11;-3.70;99.90
19813;DHT22;10066;48.108;11.448;2022-12-18T07:39:38;-3.70;99.90
19813;DHT22;10066;48.108;11.448;2022-12-18T07:42:07;-3.80;99.90
19813;DHT22;10066;48.108;11.448;2022-12-18T07:44:52;-3.80;99.90
19813;DHT22;10066;48.108;11.448;2022-12-18T07:47:21;-3.80;99.90
19813;DHT22;10066;48.108;11.448;2022-12-18T07:49:48;-3.80;99.90
19813;DHT22;10066;48.108;11.448;2022-12-18T07:52:15;-3.80;99.90
19813;DHT22;10066;48.108;11.448;2022-12-18T07:54:42;-3.90;99.90
19813;DHT22;10066;48.108;11.448;2022-12-18T07:57:10;-4.00;99.90
19813;DHT22;10066;48.108;11.448;2022-12-18T07:59:37;-4.00;99.90
19813;DHT22;10066;48.108;11.448;2022-12-18T08:02:04;-4.00;99.90
19813;DHT22;10066;48.108;11.448;2022-12-18T08:04:31;-3.90;99.90
19813;DHT22;10066;48.108;11.448;2022-12-18T08:06:58;-3.90;99.90
19813;DHT22;10066;48.108;11.448;2022-12-18T08:09:25;-3.90;99.90
19813;DHT22;10066;48.108;11.448;2022-12-18T08:11:52;-4.00;99.90
19813;DHT22;10066;48.108;11.448;2022-12-18T08:14:21;-3.90;99.90
19813;DHT22;10066;48.108;11.448;2022-12-18T08:16:48;-3.90;99.90
19813;DHT22;10066;48.108;11.448;2022-12-18T08:19:15;-3.80;99.90
19813;DHT22;10066;48.108;11.448;2022-12-18T08:21:42;-3.80;99.90
19813;DHT22;10066;48.108;11.448;2022-12-18T08:24:09;-3.80;99.90
19813;DHT22;10066;48.108;11.448;2022-12-18T08:26:37;-3.80;99.90
19813;DHT22;10066;48.108;11.448;2022-12-18T08:29:04;-3.80;99.90
19813;DHT22;10066;48.108;11.448;2022-12-18T08:31:33;-3.70;99.90
19813;DHT22;10066;48.108;11.448;2022-12-18T08:33:59;-3.60;99.90
19813;DHT22;10066;48.108;11.448;2022-12-18T08:36:26;-3.60;99.90
19813;DHT22;10066;48.108;11.448;2022-12-18T08:38:53;-3.60;99.90
19813;DHT22;10066;48.108;11.448;2022-12-18T08:41:21;-3.60;99.90
19813;DHT22;10066;48.108;11.448;2022-12-18T08:43:50;-3.60;99.90
19813;DHT22;10066;48.108;11.448;2022-12-18T08:46:37;-3.50;99.90
19813;DHT22;10066;48.108;11.448;2022-12-18T08:49:05;-3.50;99.90
19813;DHT22;10066;48.108;11.448;2022-12-18T08:51:32;-3.60;99.90
19813;DHT22;10066;48.108;11.448;2022-12-18T08:53:59;-3.60;99.90
19813;DHT22;10066;48.108;11.448;2022-12-18T08:56:26;-3.50;99.90
19813;DHT22;10066;48.108;11.448;2022-12-18T08:58:54;-3.50;99.90
19813;DHT22;10066;48.108;11.448;2022-12-18T09:01:21;-3.50;99.90
19813;DHT22;10066;48.108;11.448;2022-12-18T09:03:50;-3.40;99.90
19813;DHT22;10066;48.108;11.448;2022-12-18T09:06:19;-3.30;99.90
19813;DHT22;10066;48.108;11.448;2022-12-18T09:08:46;-3.30;99.90
19813;DHT22;10066;48.108;11.448;2022-12-18T09:11:15;-3.20;99.90
19813;DHT22;10066;48.108;11.448;2022-12-18T09:13:42;-3.30;99.90
19813;DHT22;10066;48.108;11.448;2022-12-18T09:16:08;-3.30;99.90
19813;DHT22;10066;48.108;11.448;2022-12-18T09:18:36;-3.30;99.90
19813;DHT22;10066;48.108;11.448;2022-12-18T09:21:10;-3.30;99.90
19813;DHT22;10066;48.108;11.448;2022-12-18T09:23:36;-3.30;99.90
19813;DHT22;10066;48.108;11.448;2022-12-18T09:26:04;-3.40;99.90
19813;DHT22;10066;48.108;11.448;2022-12-18T09:28:31;-3.30;99.90
19813;DHT22;10066;48.108;11.448;2022-12-18T09:30:58;-3.40;99.90
19813;DHT22;10066;48.108;11.448;2022-12-18T09:33:25;-3.40;99.90
19813;DHT22;10066;48.108;11.448;2022-12-18T09:35:51;-3.40;99.90
19813;DHT22;10066;48.108;11.448;2022-12-18T09:38:20;-3.40;99.90
19813;DHT22;10066;48.108;11.448;2022-12-18T09:40:51;-3.30;99.90
19813;DHT22;10066;48.108;11.448;2022-12-18T09:43:24;-3.20;99.90
19813;DHT22;10066;48.108;11.448;2022-12-18T09:45:57;-3.10;99.90
19813;DHT22;10066;48.108;11.448;2022-12-18T09:48:28;-3.10;99.90
19813;DHT22;10066;48.108;11.448;2022-12-18T09:50:59;-3.10;99.90
19813;DHT22;10066;48.108;11.448;2022-12-18T09:53:33;-3.10;99.90
19813;DHT22;10066;48.108;11.448;2022-12-18T09:56:04;-3.10;99.90
19813;DHT22;10066;48.108;11.448;2022-12-18T09:58:34;-3.10;99.90
19813;DHT22;10066;48.108;11.448;2022-12-18T10:01:06;-3.10;99.90
19813;DHT22;10066;48.108;11.448;2022-12-18T10:03:36;-3.20;99.90
19813;DHT22;10066;48.108;11.448;2022-12-18T10:06:08;-3.30;99.90
19813;DHT22;10066;48.108;11.448;2022-12-18T10:08:43;-3.30;99.90
19813;DHT22;10066;48.108;11.448;2022-12-18T10:11:26;-3.30;99.90
19813;DHT22;10066;48.108;11.448;2022-12-18T10:13:57;-3.20;99.90
19813;DHT22;10066;48.108;11.448;2022-12-18T10:16:32;-3.20;99.90
19813;DHT22;10066;48.108;11.448;2022-12-18T10:19:09;-3.20;99.90
19813;DHT22;10066;48.108;11.448;2022-12-18T10:21:44;-3.10;99.90
19813;DHT22;10066;48.108;11.448;2022-12-18T10:24:21;-3.10;99.90
19813;DHT22;10066;48.108;11.448;2022-12-18T10:26:56;-3.10;99.90
19813;DHT22;10066;48.108;11.448;2022-12-18T10:29:25;-3.10;99.90
19813;DHT22;10066;48.108;11.448;2022-12-18T10:31:52;-3.10;99.90
19813;DHT22;10066;48.108;11.448;2022-12-18T10:34:19;-3.00;99.90
19813;DHT22;10066;48.108;11.448;2022-12-18T10:36:47;-3.00;99.90
19813;DHT22;10066;48.108;11.448;2022-12-18T10:39:18;-2.90;99.90
19813;DHT22;10066;48.108;11.448;2022-12-18T10:41:47;-2.90;99.90
19813;DHT22;10066;48.108;11.448;2022-12-18T10:44:17;-2.80;99.90
19813;DHT22;10066;48.108;11.448;2022-12-18T10:46:45;-2.80;99.90
19813;DHT22;10066;48.108;11.448;2022-12-18T10:49:21;-2.80;99.90
19813;DHT22;10066;48.108;11.448;2022-12-18T10:51:49;-2.80;99.90
19813;DHT22;10066;48.108;11.448;2022-12-18T10:54:21;-2.80;99.90
19813;DHT22;10066;48.108;11.448;2022-12-18T10:56:48;-2.80;99.90
19813;DHT22;10066;48.108;11.448;2022-12-18T10:59:17;-2.70;99.90
19813;DHT22;10066;48.108;11.448;2022-12-18T11:01:51;-2.80;99.90
19813;DHT22;10066;48.108;11.448;2022-12-18T11:04:22;-2.80;99.90
19813;DHT22;10066;48.108;11.448;2022-12-18T11:06:57;-2.80;99.90
19813;DHT22;10066;48.108;11.448;2022-12-18T11:09:27;-2.80;99.90
19813;DHT22;10066;48.108;11.448;2022-12-18T11:11:55;-2.80;99.90
19813;DHT22;10066;48.108;11.448;2022-12-18T11:14:26;-2.80;99.90
19813;DHT22;10066;48.108;11.448;2022-12-18T11:16:54;-2.80;99.90
19813;DHT22;10066;48.108;11.448;2022-12-18T11:19:29;-2.90;99.90
19813;DHT22;10066;48.108;11.448;2022-12-18T11:21:57;-2.90;99.90
19813;DHT22;10066;48.108;11.448;2022-12-18T11:24:30;-2.80;99.90
19813;DHT22;10066;48.108;11.448;2022-12-18T11:26:59;-2.80;99.90
19813;DHT22;10066;48.108;11.448;2022-12-18T11:29:32;-2.70;99.90
19813;DHT22;10066;48.108;11.448;2022-12-18T11:32:25;-2.70;99.90
19813;DHT22;10066;48.108;11.448;2022-12-18T11:34:59;-2.80;99.90
19813;DHT22;10066;48.108;11.448;2022-12-18T11:37:27;-2.70;99.90
19813;DHT22;10066;48.108;11.448;2022-12-18T11:39:58;-2.70;99.90
19813;DHT22;10066;48.108;11.448;2022-12-18T11:42:35;-2.70;99.90
19813;DHT22;10066;48.108;11.448;2022-12-18T11:45:23;-2.80;99.90
19813;DHT22;10066;48.108;11.448;2022-12-18T11:47:56;-2.90;99.90
19813;DHT22;10066;48.108;11.448;2022-12-18T11:50:26;-2.90;99.90
19813;DHT22;10066;48.108;11.448;2022-12-18T11:52:55;-2.80;99.90
19813;DHT22;10066;48.108;11.448;2022-12-18T11:55:30;-2.80;99.90
19813;DHT22;10066;48.108;11.448;2022-12-18T11:58:04;-2.70;99.90
19813;DHT22;10066;48.108;11.448;2022-12-18T12:00:36;-2.70;99.90
19813;DHT22;10066;48.108;11.448;2022-12-18T12:03:22;-2.60;99.90
19813;DHT22;10066;48.108;11.448;2022-12-18T12:06:01;-2.70;99.90
19813;DHT22;10066;48.108;11.448;2022-12-18T12:08:39;-2.70;99.90
19813;DHT22;10066;48.108;11.448;2022-12-18T12:11:16;-2.70;99.90
19813;DHT22;10066;48.108;11.448;2022-12-18T12:13:55;-2.70;99.90
19813;DHT22;10066;48.108;11.448;2022-12-18T12:16:25;-2.70;99.90
19813;DHT22;10066;48.108;11.448;2022-12-18T12:19:03;-2.60;99.90
19813;DHT22;10066;48.108;11.448;2022-12-18T12:21:37;-2.60;99.90
19813;DHT22;10066;48.108;11.448;2022-12-18T12:24:15;-2.50;99.90
19813;DHT22;10066;48.108;11.448;2022-12-18T12:26:53;-2.50;99.90
19813;DHT22;10066;48.108;11.448;2022-12-18T12:29:37;-2.60;99.90
19813;DHT22;10066;48.108;11.448;2022-12-18T12:32:17;-2.70;99.90
19813;DHT22;10066;48.108;11.448;2022-12-18T12:34:56;-2.70;99.90
19813;DHT22;10066;48.108;11.448;2022-12-18T12:37:33;-2.70;99.90
19813;DHT22;10066;48.108;11.448;2022-12-18T12:40:05;-2.70;99.90
19813;DHT22;10066;48.108;11.448;2022-12-18T12:42:37;-2.70;99.90
19813;DHT22;10066;48.108;11.448;2022-12-18T12:45:28;-2.70;99.90
19813;DHT22;10066;48.108;11.448;2022-12-18T12:47:57;-2.70;99.90
19813;DHT22;10066;48.108;11.448;2022-12-18T12:50:26;-2.70;99.90
19813;DHT22;10066;48.108;11.448;2022-12-18T12:52:55;-2.70;99.90
19813;DHT22;10066;48.108;11.448;2022-12-18T12:55:25;-2.70;99.90
19813;DHT22;10066;48.108;11.448;2022-12-18T12:58:02;-2.70;99.90
19813;DHT22;10066;48.108;11.448;2022-12-18T13:00:36;-2.60;99.90
19813;DHT22;10066;48.108;11.448;2022-12-18T13:03:12;-2.60;99.90
19813;DHT22;10066;48.108;11.448;2022-12-18T13:05:48;-2.60;99.90
19813;DHT22;10066;48.108;11.448;2022-12-18T13:08:23;-2.50;99.90
19813;DHT22;10066;48.108;11.448;2022-12-18T13:10:51;-2.50;99.90
19813;DHT22;10066;48.108;11.448;2022-12-18T13:13:50;-2.50;99.90
19813;DHT22;10066;48.108;11.448;2022-12-18T13:16:19;-2.40;99.90
19813;DHT22;10066;48.108;11.448;2022-12-18T13:18:50;-2.40;99.90
19813;DHT22;10066;48.108;11.448;2022-12-18T13:21:21;-2.40;99.90
19813;DHT22;10066;48.108;11.448;2022-12-18T13:23:50;-2.40;99.90
19813;DHT22;10066;48.108;11.448;2022-12-18T13:26:31;-2.50;99.90
19813;DHT22;10066;48.108;11.448;2022-12-18T13:29:02;-2.50;99.90
19813;DHT22;10066;48.108;11.448;2022-12-18T13:34:36;-2.40;99.90
19813;DHT22;10066;48.108;11.448;2022-12-18T13:37:39;-2.50;99.90
19813;DHT22;10066;48.108;11.448;2022-12-18T13:43:24;-2.50;99.90
19813;DHT22;10066;48.108;11.448;2022-12-18T13:46:02;-2.50;99.90
19813;DHT22;10066;48.108;11.448;2022-12-18T13:48:33;-2.50;99.90
19813;DHT22;10066;48.108;11.448;2022-12-18T13:51:04;-2.50;99.90
19813;DHT22;10066;48.108;11.448;2022-12-18T13:53:36;-2.60;99.90
19813;DHT22;10066;48.108;11.448;2022-12-18T13:56:05;-2.60;99.90
19813;DHT22;10066;48.108;11.448;2022-12-18T13:58:32;-2.60;99.90
19813;DHT22;10066;48.108;11.448;2022-12-18T14:01:01;-2.70;99.90
19813;DHT22;10066;48.108;11.448;2022-12-18T14:03:30;-2.80;99.90
19813;DHT22;10066;48.108;11.448;2022-12-18T14:06:03;-2.90;99.90
19813;DHT22;10066;48.108;11.448;2022-12-18T14:08:38;-2.90;99.90
19813;DHT22;10066;48.108;11.448;2022-12-18T14:11:06;-3.00;99.90
19813;DHT22;10066;48.108;11.448;2022-12-18T14:13:36;-3.00;99.90
19813;DHT22;10066;48.108;11.448;2022-12-18T14:16:06;-3.10;99.90
19813;DHT22;10066;48.108;11.448;2022-12-18T14:18:41;-3.10;99.90
19813;DHT22;10066;48.108;11.448;2022-12-18T14:21:18;-3.10;99.90
19813;DHT22;10066;48.108;11.448;2022-12-18T14:23:46;-3.10;99.90
19813;DHT22;10066;48.108;11.448;2022-12-18T14:26:22;-3.20;99.90
19813;DHT22;10066;48.108;11.448;2022-12-18T14:28:50;-3.30;99.90
19813;DHT22;10066;48.108;11.448;2022-12-18T14:31:19;-3.30;99.90
19813;DHT22;10066;48.108;11.448;2022-12-18T14:33:47;-3.40;99.90
19813;DHT22;10066;48.108;11.448;2022-12-18T14:36:16;-3.40;99.90
19813;DHT22;10066;48.108;11.448;2022-12-18T14:38:48;-3.50;99.90
19813;DHT22;10066;48.108;11.448;2022-12-18T14:41:19;-3.50;99.90
19813;DHT22;10066;48.108;11.448;2022-12-18T14:43:48;-3.50;99.90
19813;DHT22;10066;48.108;11.448;2022-12-18T14:46:39;-3.60;99.90
19813;DHT22;10066;48.108;11.448;2022-12-18T14:49:20;-3.60;99.90
19813;DHT22;10066;48.108;11.448;2022-12-18T14:51:50;-3.70;99.90
19813;DHT22;10066;48.108;11.448;2022-12-18T14:54:19;-3.70;99.90
19813;DHT22;10066;48.108;11.448;2022-12-18T14:56:47;-3.70;99.90
19813;DHT22;10066;48.108;11.448;2022-12-18T14:59:17;-3.70;99.90
19813;DHT22;10066;48.108;11.448;2022-12-18T15:01:53;-3.70;99.90
19813;DHT22;10066;48.108;11.448;2022-12-18T15:04:25;-3.80;99.90
19813;DHT22;10066;48.108;11.448;2022-12-18T15:07:07;-3.80;99.90
19813;DHT22;10066;48.108;11.448;2022-12-18T15:09:35;-3.90;99.90
19813;DHT22;10066;48.108;11.448;2022-12-18T15:12:03;-3.90;99.90
19813;DHT22;10066;48.108;11.448;2022-12-18T15:14:33;-3.90;99.90
19813;DHT22;10066;48.108;11.448;2022-12-18T15:17:05;-3.90;99.90
19813;DHT22;10066;48.108;11.448;2022-12-18T15:19:37;-3.90;99.90
19813;DHT22;10066;48.108;11.448;2022-12-18T15:22:17;-3.90;99.90
19813;DHT22;10066;48.108;11.448;2022-12-18T15:24:45;-4.00;99.90
19813;DHT22;10066;48.108;11.448;2022-12-18T15:27:21;-4.00;99.90
19813;DHT22;10066;48.108;11.448;2022-12-18T15:30:00;-4.00;99.90
19813;DHT22;10066;48.108;11.448;2022-12-18T15:32:28;-4.00;99.90
19813;DHT22;10066;48.108;11.448;2022-12-18T15:35:09;-4.00;99.90
19813;DHT22;10066;48.108;11.448;2022-12-18T15:37:40;-4.00;99.90
19813;DHT22;10066;48.108;11.448;2022-12-18T15:40:11;-3.90;99.90
19813;DHT22;10066;48.108;11.448;2022-12-18T15:42:39;-3.90;99.90
19813;DHT22;10066;48.108;11.448;2022-12-18T15:45:23;-3.90;99.90